首页
METAR-TAF:

METAR-TAF

机场 :

Webster City Municipal Airport

Webster City, 艾奥瓦州, 美国

纬度: 42-26N, 经度: 093-52W, 海拔: 342米

当前天气观测

该预报发布于34分钟前的15:55 UTC
风速10节,风向西转西北,有时为16节阵风
温度 29°C
湿度 79%
气压 1012 hPa
能見度: 16.1公里
少量云层高于2900英尺
散云层高于10000英尺

METAR: KEBS 201555Z AUTO 29010G16KT 10SM FEW029 SCT100 29/25 A2987 RMK AO2

时间: 11:29 (16:29 UTC)


TAF: 丢失

超过4000个机场的气象观测和天气预报(METAR&TAF报告)。

可查询的气象台以黄色和红色小点在地图上表示。

将鼠标移到小点上方,可查看气象台名称。

然后点击查看天气观测和预报。

如需切换地图:点击带黑十字的绿色按钮放大地图;点击带横线的绿色按钮缩小地图;或者点击绿色箭头查看邻近地区的地图。


METAR-TAF: